Time;durP1;ratioP1;P1;durP2;ratioP2;P2;SDS_P1;SDS_P2;PMS_P1;PMS_P2;Temp;Humidity;BMP_temperature;BMP_pressure;BME280_temperature;BME280_humidity;BME280_pressure;Samples;Min_cycle;Max_cycle;Signal;HPM_P1;HPM_P2
2022/08/18 00:02:24;;;;;;;7.60;3.70;;;;;;;22.95;48.19;93819.59;5023281;28;20060;-74
2022/08/18 00:04:51;;;;;;;4.85;2.85;;;;;;;22.88;48.79;93820.41;5023376;28;20030;-74
2022/08/18 00:07:21;;;;;;;7.13;3.42;;;;;;;22.86;49.33;93824.66;5022647;28;20044;-74
2022/08/18 00:09:47;;;;;;;7.25;3.47;;;;;;;22.80;49.26;93824.31;5023311;28;20026;-75
2022/08/18 00:12:17;;;;;;;6.30;3.63;;;;;;;22.75;48.86;93821.97;5023423;28;20020;-74
2022/08/18 00:14:44;;;;;;;10.43;4.03;;;;;;;22.72;48.90;93820.06;5023295;28;20220;-74
2022/08/18 00:17:10;;;;;;;6.90;3.55;;;;;;;22.66;49.24;93818.91;5023030;28;20029;-74
2022/08/18 00:19:35;;;;;;;7.45;4.25;;;;;;;22.60;49.61;93822.00;5023205;28;20022;-74
2022/08/18 00:22:01;;;;;;;8.23;4.72;;;;;;;22.55;50.03;93819.72;5023000;28;20257;-73
2022/08/18 00:24:26;;;;;;;8.60;3.47;;;;;;;22.45;50.49;93825.94;5023104;28;20021;-73
2022/08/18 00:26:53;;;;;;;4.38;2.90;;;;;;;22.42;51.25;93823.97;5023092;28;20037;-74
2022/08/18 00:29:19;;;;;;;4.07;2.85;;;;;;;22.36;51.67;93822.81;5023178;28;20030;-74
2022/08/18 00:31:44;;;;;;;9.43;4.65;;;;;;;22.27;52.20;93827.84;5023069;28;20032;-73
2022/08/18 00:34:10;;;;;;;6.38;3.15;;;;;;;22.15;52.15;93818.16;5022913;28;20022;-74
2022/08/18 00:36:35;;;;;;;9.32;3.60;;;;;;;22.08;52.15;93818.91;5022941;28;20042;-73
2022/08/18 00:39:01;;;;;;;7.05;3.97;;;;;;;22.02;52.49;93821.25;5023044;28;20332;-73
2022/08/18 00:41:27;;;;;;;6.43;3.78;;;;;;;21.96;52.88;93822.78;5022837;28;20026;-73
2022/08/18 00:43:54;;;;;;;5.78;3.30;;;;;;;21.90;53.10;93818.09;5022854;28;20328;-73
2022/08/18 00:46:35;;;;;;;7.72;3.92;;;;;;;21.86;53.17;93822.75;5022732;28;20403;-73
2022/08/18 00:49:01;;;;;;;9.97;3.70;;;;;;;21.79;53.69;93824.28;5022889;28;20026;-72
2022/08/18 00:51:43;;;;;;;9.55;3.60;;;;;;;21.72;53.62;93829.72;5022907;28;20271;-73
2022/08/18 00:54:17;;;;;;;6.43;3.92;;;;;;;21.69;53.73;93829.72;5022857;28;20042;-73
2022/08/18 00:56:49;;;;;;;10.15;3.63;;;;;;;21.61;53.25;93831.63;5022895;28;20227;-73
2022/08/18 00:59:23;;;;;;;8.48;4.63;;;;;;;21.56;53.13;93834.72;5022710;28;20042;-73
2022/08/18 01:01:50;;;;;;;6.15;3.78;;;;;;;21.51;53.89;93840.50;5022684;28;20102;-73
2022/08/18 01:04:30;;;;;;;6.57;4.00;;;;;;;21.48;54.10;93835.84;5022704;28;20055;-73
2022/08/18 01:07:04;;;;;;;7.90;3.70;;;;;;;21.43;54.54;93840.50;5022670;28;20097;-74
2022/08/18 01:09:29;;;;;;;6.20;3.85;;;;;;;21.38;54.51;93840.81;5022722;28;20096;-74
2022/08/18 01:11:55;;;;;;;6.22;4.20;;;;;;;21.36;54.97;93839.66;5022642;28;20165;-72
2022/08/18 01:14:21;;;;;;;8.93;4.07;;;;;;;21.31;54.70;93831.88;5022468;28;20042;-73
2022/08/18 01:22:49;;;;;;;6.40;4.15;;;;;;;21.11;56.39;93839.56;4956426;28;20078;-74
2022/08/18 01:28:03;;;;;;;9.75;4.57;;;;;;;20.91;56.96;93829.00;5026345;28;20092;-73
2022/08/18 01:30:31;;;;;;;7.85;4.35;;;;;;;20.90;56.99;93830.16;5025968;28;20320;-73
2022/08/18 01:32:57;;;;;;;12.00;5.65;;;;;;;20.87;57.03;93825.50;5026319;28;20220;-74
2022/08/18 01:35:25;;;;;;;11.02;4.43;;;;;;;20.81;57.43;93827.78;5026076;28;20067;-74
2022/08/18 01:37:51;;;;;;;13.63;5.18;;;;;;;20.82;57.76;93823.13;5026096;28;20265;-74
2022/08/18 01:40:20;;;;;;;7.30;5.10;;;;;;;20.81;57.89;93827.03;5026062;28;20056;-74
2022/08/18 01:42:45;;;;;;;6.22;4.68;;;;;;;20.75;57.90;93823.13;5025989;28;20026;-74
2022/08/18 01:45:13;;;;;;;8.93;4.07;;;;;;;20.73;58.05;93820.78;5025948;28;20036;-74
2022/08/18 01:47:39;;;;;;;10.55;4.45;;;;;;;20.69;58.48;93824.63;5026044;28;20021;-74
2022/08/18 01:50:07;;;;;;;6.63;4.25;;;;;;;20.65;58.70;93824.59;5025952;28;20026;-74
2022/08/18 01:52:34;;;;;;;8.82;4.80;;;;;;;20.60;58.42;93828.44;5025731;28;20312;-73
2022/08/18 01:55:00;;;;;;;9.65;4.47;;;;;;;20.58;58.38;93825.34;5025796;28;20022;-73
2022/08/18 01:57:27;;;;;;;7.25;4.50;;;;;;;20.53;58.74;93828.34;5024407;28;20222;-73
2022/08/18 01:59:52;;;;;;;6.57;4.45;;;;;;;20.44;59.12;93819.81;5025792;28;20045;-73
2022/08/18 02:02:23;;;;;;;9.55;5.18;;;;;;;20.39;58.96;93825.56;5025609;28;20030;-73
2022/08/18 02:04:52;;;;;;;7.03;4.07;;;;;;;20.36;58.82;93818.19;5025515;28;20029;-73
2022/08/18 02:07:18;;;;;;;10.02;4.57;;;;;;;20.35;58.92;93824.75;5025431;28;20033;-73
2022/08/18 02:09:43;;;;;;;9.25;4.80;;;;;;;20.34;58.10;93823.22;5025531;28;20068;-73
2022/08/18 02:12:10;;;;;;;7.88;4.60;;;;;;;20.29;57.87;93827.03;5025563;28;20021;-73
2022/08/18 02:14:36;;;;;;;8.30;5.05;;;;;;;20.28;57.90;93838.25;5025369;28;20030;-73
2022/08/18 02:17:03;;;;;;;9.68;5.03;;;;;;;20.26;57.96;93829.72;5025434;28;20064;-73
2022/08/18 02:19:38;;;;;;;8.50;4.82;;;;;;;20.27;57.93;93836.69;5025248;28;20022;-73
2022/08/18 02:22:06;;;;;;;7.18;4.50;;;;;;;20.26;58.31;93830.50;5025325;28;20026;-73
2022/08/18 02:24:31;;;;;;;6.07;4.40;;;;;;;20.27;58.99;93831.25;5025254;28;20022;-73
2022/08/18 02:26:57;;;;;;;8.82;4.30;;;;;;;20.24;59.62;93825.44;5025061;28;20220;-73
2022/08/18 02:29:22;;;;;;;15.10;5.93;;;;;;;20.21;59.77;93834.34;5024885;28;20056;-73
2022/08/18 02:31:48;;;;;;;9.77;5.03;;;;;;;20.14;59.55;93822.66;5024531;28;20246;-73
2022/08/18 02:34:14;;;;;;;11.23;5.25;;;;;;;20.12;60.08;93819.56;5024993;28;20022;-73
2022/08/18 02:36:40;;;;;;;7.28;4.57;;;;;;;20.14;60.20;93818.03;5025362;28;20092;-73
2022/08/18 02:39:09;;;;;;;7.30;4.68;;;;;;;20.12;60.25;93820.34;5024740;28;20363;-72
2022/08/18 02:41:35;;;;;;;7.70;4.47;;;;;;;20.12;60.43;93822.25;5024512;28;20029;-73
2022/08/18 02:44:01;;;;;;;12.38;5.15;;;;;;;20.07;60.48;93828.81;5025018;28;20840;-73
2022/08/18 02:46:27;;;;;;;13.10;5.40;;;;;;;20.04;59.99;93816.00;5024856;28;20092;-73
2022/08/18 02:48:52;;;;;;;11.60;5.57;;;;;;;19.99;60.40;93827.19;5024797;28;20037;-74
2022/08/18 02:51:18;;;;;;;8.98;5.55;;;;;;;19.95;59.96;93831.78;5024703;28;20304;-74
2022/08/18 02:53:45;;;;;;;17.00;5.38;;;;;;;19.93;60.19;93828.69;5023458;28;20054;-74
2022/08/18 02:56:34;;;;;;;9.02;5.15;;;;;;;19.90;60.55;93832.13;5024712;28;20025;-74
2022/08/18 02:59:04;;;;;;;10.05;5.25;;;;;;;19.86;60.96;93829.38;5024248;28;20240;-74
2022/08/18 03:01:39;;;;;;;10.73;5.50;;;;;;;19.83;61.37;93833.63;5024613;28;20080;-74
2022/08/18 03:04:07;;;;;;;11.30;5.82;;;;;;;19.83;60.94;93828.19;5024464;28;20029;-75
2022/08/18 03:06:35;;;;;;;8.60;4.80;;;;;;;19.81;61.41;93827.81;5024645;28;20018;-74
2022/08/18 03:09:03;;;;;;;8.77;4.97;;;;;;;19.79;61.67;93829.31;5024519;28;20026;-74
2022/08/18 03:11:28;;;;;;;12.38;5.78;;;;;;;19.79;61.53;93829.31;5024407;28;20017;-74
2022/08/18 03:13:55;;;;;;;8.90;5.38;;;;;;;19.74;61.43;93833.16;5024263;28;20261;-75
2022/08/18 03:16:23;;;;;;;8.23;5.63;;;;;;;19.72;62.09;93832.75;5024344;28;20016;-75
2022/08/18 03:18:49;;;;;;;11.10;6.18;;;;;;;19.69;62.11;93836.16;5024287;28;20021;-74
2022/08/18 03:21:22;;;;;;;9.75;6.18;;;;;;;19.67;62.48;93840.38;5024109;28;20022;-74
2022/08/18 03:23:50;;;;;;;8.45;5.25;;;;;;;19.64;62.59;93828.34;5024286;28;20224;-73
2022/08/18 03:26:17;;;;;;;14.80;6.28;;;;;;;19.62;62.16;93841.47;5024130;28;20051;-74
2022/08/18 03:28:46;;;;;;;10.25;5.93;;;;;;;19.60;62.50;93843.75;5024046;28;20096;-74
2022/08/18 03:31:13;;;;;;;13.55;7.15;;;;;;;19.58;62.26;93846.88;5023960;28;20053;-73
2022/08/18 03:33:41;;;;;;;12.32;6.40;;;;;;;19.57;62.74;93847.22;5024060;28;20068;-74
2022/08/18 03:36:08;;;;;;;11.85;6.25;;;;;;;19.53;62.51;93846.41;5023929;28;20049;-74
2022/08/18 03:38:34;;;;;;;9.35;6.03;;;;;;;19.50;63.17;93844.44;5023889;28;20057;-73
2022/08/18 03:41:00;;;;;;;8.77;5.63;;;;;;;19.51;63.22;93840.59;5023419;28;20064;-72
2022/08/18 03:43:25;;;;;;;13.25;5.85;;;;;;;19.51;63.09;93846.00;5023773;28;20101;-74
2022/08/18 03:45:53;;;;;;;10.05;6.03;;;;;;;19.45;63.57;93843.63;5023749;28;20141;-73
2022/08/18 03:48:19;;;;;;;11.38;5.85;;;;;;;19.47;63.20;93845.19;5023791;28;20022;-73
2022/08/18 03:50:47;;;;;;;13.70;6.25;;;;;;;19.47;63.05;93850.59;5023729;28;20045;-72
2022/08/18 03:53:12;;;;;;;9.88;5.68;;;;;;;19.45;63.41;93842.84;5023602;28;20049;-73
2022/08/18 03:55:41;;;;;;;8.23;5.47;;;;;;;19.46;63.33;93847.13;5023756;28;20281;-73
2022/08/18 03:58:07;;;;;;;14.00;7.60;;;;;;;19.47;62.95;93845.19;5023415;28;20064;-73
2022/08/18 04:00:37;;;;;;;9.15;5.93;;;;;;;19.45;63.23;93851.72;5023424;28;20332;-73
2022/08/18 04:03:03;;;;;;;16.27;6.60;;;;;;;19.44;63.44;93852.13;5023480;28;20319;-73
2022/08/18 04:05:28;;;;;;;9.15;5.57;;;;;;;19.47;63.69;93858.69;5023471;28;20083;-73
2022/08/18 04:07:55;;;;;;;11.43;5.68;;;;;;;19.48;63.40;93860.25;5023201;28;20036;-74
2022/08/18 04:10:22;;;;;;;10.82;6.10;;;;;;;19.53;63.97;93857.22;5023420;28;20017;-74
2022/08/18 04:12:48;;;;;;;15.32;6.63;;;;;;;19.53;63.96;93863.41;5023186;28;20072;-73
2022/08/18 04:15:13;;;;;;;9.50;6.32;;;;;;;19.58;63.51;93865.78;5023434;28;20032;-74
2022/08/18 04:17:39;;;;;;;10.75;6.20;;;;;;;19.63;63.62;93859.25;5023198;28;20036;-74
2022/08/18 04:20:05;;;;;;;9.32;6.10;;;;;;;19.69;62.77;93867.81;5023296;28;20225;-74
2022/08/18 04:22:33;;;;;;;13.85;6.68;;;;;;;19.72;62.96;93870.59;5023087;28;20254;-74
2022/08/18 04:24:59;;;;;;;9.25;6.57;;;;;;;19.78;63.04;93871.81;5023094;28;20243;-73
2022/08/18 04:27:26;;;;;;;10.73;6.03;;;;;;;19.82;62.54;93872.63;5022868;28;20032;-75
2022/08/18 04:29:51;;;;;;;11.07;6.18;;;;;;;19.86;62.39;93883.47;5023067;28;20017;-75
2022/08/18 04:32:18;;;;;;;14.00;7.05;;;;;;;19.92;62.16;93878.50;5023146;28;20024;-74
2022/08/18 04:34:44;;;;;;;12.77;6.10;;;;;;;19.96;61.86;93885.50;5023132;28;20029;-75
2022/08/18 04:37:09;;;;;;;11.70;5.40;;;;;;;19.99;61.58;93884.78;5022885;28;20038;-75
2022/08/18 04:39:36;;;;;;;12.07;6.78;;;;;;;19.96;61.96;93890.13;5022923;28;20018;-75
2022/08/18 04:42:02;;;;;;;16.90;6.65;;;;;;;19.95;61.98;93878.56;5022662;28;20042;-75
2022/08/18 04:44:28;;;;;;;12.60;6.68;;;;;;;19.96;62.36;93882.03;5022862;28;20190;-75
2022/08/18 04:46:54;;;;;;;13.13;7.00;;;;;;;19.92;62.34;93873.09;5022684;28;20139;-73
2022/08/18 04:49:24;;;;;;;12.23;7.18;;;;;;;19.91;62.02;93887.78;5022401;28;20104;-74
2022/08/18 04:54:38;;;;;;;16.17;7.22;;;;;;;20.04;62.12;93881.72;5025430;28;20096;-73
2022/08/18 04:57:11;;;;;;;16.23;9.02;;;;;;;20.06;62.01;93892.16;5026578;28;20026;-72
2022/08/18 04:59:39;;;;;;;15.15;8.18;;;;;;;20.09;61.43;93886.03;5026308;28;20061;-73
2022/08/18 05:02:06;;;;;;;14.90;7.40;;;;;;;20.16;61.52;93885.31;5026654;28;20129;-73
2022/08/18 05:04:33;;;;;;;11.23;7.65;;;;;;;20.16;61.73;93888.78;5026704;28;20330;-73
2022/08/18 05:06:59;;;;;;;16.10;8.23;;;;;;;20.19;62.03;93889.97;5026206;28;20026;-73
2022/08/18 05:09:25;;;;;;;15.98;8.50;;;;;;;20.23;61.02;93885.34;5026350;28;20037;-74
2022/08/18 05:11:50;;;;;;;13.27;6.93;;;;;;;20.30;61.27;93884.66;5026649;28;20125;-72
2022/08/18 05:14:16;;;;;;;17.88;7.93;;;;;;;20.28;61.58;93887.72;5026864;28;20018;-86
2022/08/18 05:16:42;;;;;;;22.48;9.43;;;;;;;20.36;61.74;93894.00;5026916;28;20036;-89
2022/08/18 05:19:10;;;;;;;20.85;8.07;;;;;;;20.40;61.62;93900.22;5025909;28;20026;-90
2022/08/18 05:21:38;;;;;;;18.45;9.55;;;;;;;20.40;61.65;93895.56;5026940;28;20034;-90
2022/08/18 05:24:04;;;;;;;25.45;9.05;;;;;;;20.45;61.16;93902.56;5026992;28;20037;-93
2022/08/18 05:26:30;;;;;;;31.23;8.98;;;;;;;20.51;61.01;93903.75;5027108;28;20053;-89
2022/08/18 05:28:56;;;;;;;31.17;8.60;;;;;;;20.55;60.81;93901.88;5027265;28;20201;-89
2022/08/18 05:31:25;;;;;;;17.52;10.30;;;;;;;20.64;60.76;93896.19;5025536;28;20075;-89
2022/08/18 05:33:51;;;;;;;19.30;8.88;;;;;;;20.73;60.45;93901.25;5025555;28;20029;-88
2022/08/18 05:36:42;;;;;;;15.30;9.25;;;;;;;20.78;60.18;93903.59;5027627;28;20076;-89
2022/08/18 05:39:16;;;;;;;27.98;8.68;;;;;;;20.81;60.02;93897.44;5026587;28;20028;-83
2022/08/18 05:42:08;;;;;;;14.68;8.25;;;;;;;20.90;59.57;93906.00;5027730;28;20038;-83
2022/08/18 05:44:38;;;;;;;21.58;8.55;;;;;;;20.92;59.60;93911.06;5026312;28;20049;-84
2022/08/18 05:47:28;;;;;;;26.55;8.30;;;;;;;20.99;59.41;93908.41;5026165;28;20052;-84
2022/08/18 05:49:56;;;;;;;19.33;8.32;;;;;;;21.06;59.93;93911.13;5026251;28;20140;-83
2022/08/18 05:52:58;;;;;;;20.75;8.50;;;;;;;21.14;58.75;93907.31;5026649;28;20018;-84
2022/08/18 05:58:19;;;;;;;;;;;;;;;21.29;59.87;93905.47;5026661;28;20041;-81
2022/08/18 06:00:54;;;;;;;25.65;9.57;;;;;;;21.33;58.60;93911.69;5026389;28;20139;-83
2022/08/18 06:03:24;;;;;;;13.77;8.07;;;;;;;21.46;58.24;93909.44;5025964;28;20025;-83
2022/08/18 06:06:00;;;;;;;17.58;8.40;;;;;;;21.63;57.11;93910.66;5024451;28;20316;-83
2022/08/18 06:09:08;;;;;;;20.50;7.88;;;;;;;21.70;57.16;93907.22;5025254;28;20375;-84
2022/08/18 06:11:33;;;;;;;59.30;14.50;;;;;;;21.74;57.71;93914.19;5025050;28;20052;-87
2022/08/18 06:14:00;;;;;;;36.33;12.75;;;;;;;21.85;57.64;93916.94;5024403;28;20220;-87
2022/08/18 06:17:05;;;;;;;24.25;10.23;;;;;;;22.01;57.49;93901.09;5026467;28;20026;-91
2022/08/18 06:19:55;;;;;;;23.13;7.57;;;;;;;22.13;56.93;93902.66;5024687;28;20109;-87
2022/08/18 06:22:35;;;;;;;20.65;9.18;;;;;;;22.25;56.83;93904.28;5023774;28;20236;-86
2022/08/18 06:25:26;;;;;;;13.88;7.18;;;;;;;22.35;56.67;93908.94;5025304;28;20124;-85
2022/08/18 06:27:54;;;;;;;19.30;8.23;;;;;;;22.47;56.39;93909.69;5023043;28;20332;-76
2022/08/18 06:30:34;;;;;;;21.35;8.38;;;;;;;22.55;56.16;93905.81;5024863;28;20033;-76
2022/08/18 06:33:20;;;;;;;18.90;8.27;;;;;;;22.63;55.28;93908.16;5023483;28;20045;-76
2022/08/18 06:36:02;;;;;;;18.52;8.07;;;;;;;22.78;54.60;93916.31;5023577;28;20109;-76
2022/08/18 06:38:39;;;;;;;;;;;;;;;22.85;54.15;93919.00;5023629;28;20030;-76
2022/08/18 06:41:19;;;;;;;19.92;7.65;;;;;;;22.89;55.10;93914.34;5022960;28;19905;-76
2022/08/18 06:44:08;;;;;;;23.75;6.93;;;;;;;22.92;54.83;93919.00;5024525;28;20132;-75
2022/08/18 06:47:02;;;;;;;19.83;7.93;;;;;;;23.05;54.08;93908.53;5025040;28;20022;-75
2022/08/18 06:49:39;;;;;;;12.10;7.53;;;;;;;23.11;53.68;93906.19;5024698;28;20030;-75
2022/08/18 06:52:38;;;;;;;29.42;8.57;;;;;;;23.22;54.00;93909.66;5024847;28;20066;-75
2022/08/18 06:55:12;;;;;;;20.38;7.80;;;;;;;23.30;53.24;93900.31;5013119;28;20041;-76
2022/08/18 06:57:52;;;;;;;15.30;6.97;;;;;;;23.36;54.24;93898.72;5024839;28;20033;-76
2022/08/18 07:00:17;;;;;;;18.70;6.80;;;;;;;23.51;53.24;93898.69;5024862;28;20416;-76
2022/08/18 07:02:51;;;;;;;22.25;8.00;;;;;;;23.60;52.47;93891.66;5024829;28;20025;-76
2022/08/18 07:05:26;;;;;;;18.92;7.50;;;;;;;23.64;52.82;93886.19;5024851;28;20215;-76
2022/08/18 07:08:16;;;;;;;15.40;6.85;;;;;;;23.84;51.77;93889.25;5024556;28;20224;-76
2022/08/18 07:10:47;;;;;;;12.82;6.20;;;;;;;23.99;51.15;93890.72;5024408;28;20022;-76
2022/08/18 07:13:14;;;;;;;15.37;6.60;;;;;;;24.11;50.49;93880.53;5024314;28;20018;-76
2022/08/18 07:15:41;;;;;;;21.88;6.10;;;;;;;24.23;49.95;93888.22;5024360;28;20026;-76
2022/08/18 07:18:08;;;;;;;16.23;6.40;;;;;;;24.28;50.76;93892.47;5024395;28;20255;-76
2022/08/18 07:20:41;;;;;;;13.57;6.43;;;;;;;24.49;49.40;93889.59;5024446;28;20068;-75
2022/08/18 07:23:08;;;;;;;19.58;5.63;;;;;;;24.67;49.45;93885.97;5023930;28;20287;-76
2022/08/18 07:25:45;;;;;;;12.40;4.65;;;;;;;24.89;48.25;93879.16;5024230;28;20018;-75
2022/08/18 07:28:39;;;;;;;15.43;3.70;;;;;;;25.11;45.46;93876.22;5024255;28;20025;-76
2022/08/18 07:31:49;;;;;;;10.52;4.18;;;;;;;25.30;47.06;93872.16;5024217;28;20025;-76
2022/08/18 07:34:26;;;;;;;5.85;4.10;;;;;;;25.47;44.70;93887.56;5022758;28;20064;-75
2022/08/18 07:37:03;;;;;;;10.98;4.18;;;;;;;25.60;44.55;93887.78;5023921;28;20026;-76
2022/08/18 07:39:42;;;;;;;31.92;6.82;;;;;;;25.78;44.98;93882.88;5023845;28;20022;-76
2022/08/18 07:42:18;;;;;;;8.27;4.43;;;;;;;25.91;43.58;93879.63;5023714;28;20044;-76
2022/08/18 07:44:54;;;;;;;9.23;3.85;;;;;;;26.01;43.27;93873.25;5023497;28;20025;-76
2022/08/18 07:47:30;;;;;;;14.48;5.07;;;;;;;26.13;43.46;93877.38;5023870;28;20045;-76
2022/08/18 07:49:57;;;;;;;15.02;5.10;;;;;;;26.20;44.61;93880.78;5023917;28;20021;-76
2022/08/18 07:52:47;;;;;;;14.02;5.05;;;;;;;26.36;41.94;93882.91;5023568;28;20216;-76
2022/08/18 07:55:23;;;;;;;12.25;4.38;;;;;;;26.43;42.13;93884.72;5023538;28;20033;-76
2022/08/18 07:58:11;;;;;;;7.15;3.90;;;;;;;26.52;41.48;93885.00;5023435;28;20327;-76
2022/08/18 08:00:44;;;;;;;10.93;4.68;;;;;;;26.58;42.27;93888.84;5023436;28;20022;-76
2022/08/18 08:03:10;;;;;;;12.60;4.40;;;;;;;26.65;42.93;93882.47;5023245;28;20209;-76
2022/08/18 08:06:04;;;;;;;9.00;4.00;;;;;;;26.72;42.52;93887.03;5023401;28;20026;-76
2022/08/18 08:08:36;;;;;;;13.57;4.78;;;;;;;26.79;40.94;93886.94;5023422;28;20232;-76
2022/08/18 08:11:29;;;;;;;7.60;4.68;;;;;;;26.86;40.40;93877.81;5023406;28;20032;-76
2022/08/18 08:14:28;;;;;;;7.97;4.95;;;;;;;26.95;40.80;93878.06;5023341;28;20350;-76
2022/08/18 08:17:16;;;;;;;9.57;4.18;;;;;;;27.03;40.68;93879.50;5023298;28;20022;-76
2022/08/18 08:20:13;;;;;;;9.45;4.57;;;;;;;27.14;41.50;93879.28;5022991;28;20036;-77
2022/08/18 08:23:03;;;;;;;7.13;3.97;;;;;;;27.17;39.88;93884.69;5023191;28;20030;-78
2022/08/18 08:26:03;;;;;;;6.70;3.63;;;;;;;27.20;38.30;93875.66;5023164;28;20278;-76
2022/08/18 08:28:58;;;;;;;5.57;3.75;;;;;;;27.20;38.99;93883.09;5010787;28;20040;-76
2022/08/18 08:31:47;;;;;;;5.15;3.65;;;;;;;27.24;38.97;93875.63;5022971;28;20029;-76
2022/08/18 08:34:20;;;;;;;8.23;3.58;;;;;;;27.34;37.08;93882.84;5022852;28;20053;-76
2022/08/18 08:36:46;;;;;;;6.55;3.90;;;;;;;27.46;37.55;93884.19;5022999;28;20030;-77
2022/08/18 08:39:36;;;;;;;7.63;3.60;;;;;;;27.55;36.97;93889.09;5022724;28;20038;-78
2022/08/18 08:42:12;;;;;;;7.60;3.78;;;;;;;27.62;36.13;93880.75;5022846;28;20037;-76
2022/08/18 08:44:45;;;;;;;8.55;3.53;;;;;;;27.59;36.99;93876.13;5022779;28;20379;-77
2022/08/18 08:47:48;;;;;;;9.43;3.85;;;;;;;27.64;37.44;93878.38;5022906;28;20255;-77
2022/08/18 08:50:19;;;;;;;9.50;3.72;;;;;;;27.72;37.03;93882.50;5022707;28;20080;-77
2022/08/18 08:52:59;;;;;;;9.25;3.42;;;;;;;27.78;35.32;93872.59;5022653;28;20254;-77
2022/08/18 08:55:29;;;;;;;6.80;3.47;;;;;;;27.81;35.85;93879.94;5022654;28;20320;-76
2022/08/18 08:58:01;;;;;;;6.20;3.50;;;;;;;27.84;35.59;93875.59;5022864;28;20207;-76
2022/08/18 09:00:27;;;;;;;5.15;3.15;;;;;;;27.93;35.45;93875.81;5022728;28;20041;-76
2022/08/18 09:03:20;;;;;;;9.10;3.42;;;;;;;28.01;34.88;93870.97;5022612;28;20224;-76
2022/08/18 09:05:58;;;;;;;10.40;3.60;;;;;;;27.98;35.86;93874.53;5021421;28;20021;-76
2022/08/18 09:08:39;;;;;;;4.80;3.15;;;;;;;28.13;33.16;93884.00;5022598;28;20109;-76
2022/08/18 09:11:19;;;;;;;6.95;3.53;;;;;;;28.20;32.57;93869.38;5022713;28;20021;-76
2022/08/18 09:13:56;;;;;;;7.97;3.00;;;;;;;28.15;32.91;93876.13;5021357;28;20105;-77
2022/08/18 09:16:25;;;;;;;5.43;3.13;;;;;;;28.23;33.09;93870.47;5022703;28;20277;-76
2022/08/18 09:19:07;;;;;;;15.20;3.65;;;;;;;28.26;34.68;93855.94;5022613;28;20093;-76
2022/08/18 09:21:35;;;;;;;4.95;3.05;;;;;;;28.36;33.01;93857.66;5022368;28;20041;-76
2022/08/18 09:24:15;;;;;;;6.82;3.47;;;;;;;28.38;33.35;93858.75;5022648;28;20033;-76
2022/08/18 09:27:14;;;;;;;7.97;3.58;;;;;;;28.45;32.18;93851.56;5022503;28;20024;-76
2022/08/18 09:29:53;;;;;;;6.15;3.30;;;;;;;28.63;32.93;93867.63;5022297;28;20030;-77
2022/08/18 09:32:19;;;;;;;7.28;2.97;;;;;;;28.75;33.05;93842.25;5022073;28;20028;-76
2022/08/18 09:35:08;;;;;;;8.93;3.47;;;;;;;28.88;31.81;93850.53;5022470;28;20037;-77
2022/08/18 09:37:46;;;;;;;4.40;3.20;;;;;;;28.93;33.32;93844.53;5022459;28;20030;-77
2022/08/18 09:43:14;;;;;;;6.45;2.95;;;;;;;28.91;32.20;93836.75;5026009;28;20378;-77
2022/08/18 09:45:55;;;;;;;15.23;3.13;;;;;;;28.86;30.94;93842.75;5025865;28;20028;-76
2022/08/18 09:48:25;;;;;;;7.90;2.80;;;;;;;28.99;30.91;93835.34;5025935;28;20037;-76
2022/08/18 09:50:54;;;;;;;4.43;2.75;;;;;;;28.87;30.98;93827.06;5025847;28;20083;-76
2022/08/18 09:53:52;;;;;;;9.50;3.05;;;;;;;28.82;29.84;93831.09;5025692;28;20239;-77
2022/08/18 09:56:48;;;;;;;10.55;3.20;;;;;;;28.85;30.85;93835.72;5025585;28;20030;-77
2022/08/18 09:59:34;;;;;;;5.20;3.10;;;;;;;28.85;30.84;93829.47;5025525;28;20025;-77
2022/08/18 10:02:02;;;;;;;6.30;3.38;;;;;;;28.94;30.93;93832.34;5025587;28;20084;-77
2022/08/18 10:04:31;;;;;;;6.65;3.40;;;;;;;29.17;30.73;93825.91;5025457;28;20079;-75
2022/08/18 10:07:17;;;;;;;11.50;3.10;;;;;;;29.24;30.56;93820.22;5025321;28;20316;-76
2022/08/18 10:09:46;;;;;;;11.27;3.75;;;;;;;29.34;31.71;93827.38;5025430;28;20232;-76
2022/08/18 10:12:30;;;;;;;5.80;3.03;;;;;;;29.47;29.07;93818.41;5025474;28;20022;-77
2022/08/18 10:15:31;;;;;;;14.95;3.00;;;;;;;29.53;29.52;93822.16;5025770;28;20263;-77
2022/08/18 10:18:25;;;;;;;8.10;3.70;;;;;;;29.59;31.68;93814.91;5025225;28;20208;-77
2022/08/18 10:21:07;;;;;;;8.23;3.65;;;;;;;29.76;29.38;93827.41;5025442;28;20025;-77
2022/08/18 10:23:48;;;;;;;8.05;4.38;;;;;;;29.72;29.94;93810.25;5025288;28;20056;-76
2022/08/18 10:26:29;;;;;;;7.45;3.42;;;;;;;29.84;30.27;93808.75;5024081;28;20097;-76
2022/08/18 10:29:14;;;;;;;9.40;3.60;;;;;;;30.00;30.34;93813.34;5025647;28;20040;-76
2022/08/18 10:31:58;;;;;;;7.40;3.40;;;;;;;30.11;29.87;93805.56;5025295;28;20227;-77
2022/08/18 10:34:26;;;;;;;5.20;2.90;;;;;;;30.15;28.23;93794.44;5025473;28;20032;-76
2022/08/18 10:36:57;;;;;;;4.57;2.85;;;;;;;30.10;28.61;93795.75;5025377;28;20021;-77
2022/08/18 10:39:41;;;;;;;5.97;3.20;;;;;;;30.09;31.26;93794.22;5025443;28;20022;-77
2022/08/18 10:42:26;;;;;;;7.82;3.15;;;;;;;30.09;30.50;93791.47;5024895;28;20316;-77
2022/08/18 10:45:04;;;;;;;9.80;3.40;;;;;;;29.93;29.37;93795.09;5025084;28;20053;-77
2022/08/18 10:47:30;;;;;;;8.30;3.35;;;;;;;29.94;29.49;93780.19;5025044;28;20277;-77
2022/08/18 10:49:57;;;;;;;7.05;3.03;;;;;;;29.99;30.23;93789.84;5025150;28;20022;-77
2022/08/18 10:52:41;;;;;;;5.95;2.80;;;;;;;30.06;28.86;93788.84;5023837;28;20092;-77
2022/08/18 10:55:18;;;;;;;6.82;3.38;;;;;;;30.15;28.58;93786.97;5024782;28;20080;-77
2022/08/18 10:58:02;;;;;;;9.07;3.38;;;;;;;30.09;28.54;93796.97;5024963;28;20093;-77
2022/08/18 11:00:47;;;;;;;8.43;3.95;;;;;;;30.04;28.43;93797.50;5024560;28;20021;-77
2022/08/18 11:03:15;;;;;;;4.93;2.83;;;;;;;30.03;29.20;93790.50;5024694;28;20232;-77
2022/08/18 11:05:41;;;;;;;7.85;3.00;;;;;;;30.01;29.70;93773.69;5024551;28;20060;-77
2022/08/18 11:08:13;;;;;;;11.85;4.38;;;;;;;30.20;29.54;93769.94;5024479;28;20030;-77
2022/08/18 11:10:47;;;;;;;6.50;3.50;;;;;;;30.32;29.75;93775.88;5024787;28;20025;-76
2022/08/18 11:13:15;;;;;;;6.03;3.17;;;;;;;30.45;29.42;93762.88;5024684;28;20026;-77
2022/08/18 11:16:11;;;;;;;11.73;5.78;;;;;;;30.58;28.88;93765.59;5024425;28;20034;-76
2022/08/18 11:18:50;;;;;;;4.32;3.08;;;;;;;30.44;28.03;93763.31;5024592;28;20097;-77
2022/08/18 11:21:39;;;;;;;4.45;2.55;;;;;;;30.51;28.89;93771.31;5024520;28;20029;-77
2022/08/18 11:24:06;;;;;;;5.28;3.20;;;;;;;30.51;27.54;93768.56;5024539;28;20041;-77
2022/08/18 11:26:35;;;;;;;7.28;3.03;;;;;;;30.55;27.61;93760.97;5024307;28;20097;-77
2022/08/18 11:29:27;;;;;;;14.88;5.38;;;;;;;30.63;26.70;93767.00;5024389;28;20030;-77
2022/08/18 11:31:59;;;;;;;;;;;;;;;30.75;27.42;93763.44;5024781;28;20220;-77
2022/08/18 11:34:33;;;;;;;3.72;2.22;;;;;;;30.72;26.30;93769.84;5024479;28;19979;-77
2022/08/18 11:37:02;;;;;;;11.02;2.97;;;;;;;30.79;27.07;93769.59;5024351;28;20040;-76
2022/08/18 11:39:28;;;;;;;5.25;2.90;;;;;;;30.82;27.05;93762.41;5024214;28;20144;-77
2022/08/18 11:41:54;;;;;;;5.15;2.58;;;;;;;30.89;26.96;93764.97;5023941;28;20096;-77
2022/08/18 11:44:24;;;;;;;8.52;2.85;;;;;;;31.00;25.60;93768.13;5024039;28;20022;-77
2022/08/18 11:47:07;;;;;;;5.85;2.60;;;;;;;31.14;26.86;93764.88;5023919;28;20030;-77
2022/08/18 11:49:35;;;;;;;8.00;3.22;;;;;;;31.27;25.39;93759.28;5023902;28;20030;-77
2022/08/18 11:52:17;;;;;;;4.50;2.80;;;;;;;31.44;25.61;93753.56;5023929;28;20190;-77
2022/08/18 11:54:48;;;;;;;11.75;2.58;;;;;;;31.56;26.38;93749.97;5023596;28;20037;-77
2022/08/18 11:57:48;;;;;;;3.70;2.47;;;;;;;31.77;24.08;93754.69;5023727;28;20093;-77
2022/08/18 12:00:40;;;;;;;9.77;2.80;;;;;;;31.80;24.81;93744.75;5023657;28;20256;-77
2022/08/18 12:03:08;;;;;;;19.90;3.70;;;;;;;31.82;24.82;93747.06;5023746;28;20248;-77
2022/08/18 12:05:48;;;;;;;8.25;3.38;;;;;;;31.88;24.89;93745.25;5023511;28;20030;-77
2022/08/18 12:08:32;;;;;;;6.53;3.50;;;;;;;32.02;24.63;93741.94;5023520;28;20030;-77
2022/08/18 12:11:19;;;;;;;5.57;2.65;;;;;;;32.16;24.36;93735.88;5023692;28;20021;-78
2022/08/18 12:13:55;;;;;;;6.28;2.42;;;;;;;32.17;25.09;93740.13;5023680;28;20076;-78
2022/08/18 12:16:40;;;;;;;21.42;3.35;;;;;;;32.21;25.34;93739.25;5023768;28;20029;-78
2022/08/18 12:19:11;;;;;;;4.13;2.83;;;;;;;32.29;24.49;93730.22;5023572;28;20096;-78